Time;durP1;ratioP1;P1;durP2;ratioP2;P2;SDS_P1;SDS_P2;PMS_P1;PMS_P2;Temp;Humidity;BMP_temperature;BMP_pressure;BME280_temperature;BME280_humidity;BME280_pressure;Samples;Min_cycle;Max_cycle;Signal;HPM_P1;HPM_P2
2023/12/15 00:00:30;;;;;;;0.20;0.20;;;;;;;9.55;73.04;101182.25;4972196;28;20031;-92
2023/12/15 00:02:56;;;;;;;0.20;0.20;;;;;;;9.47;73.31;101192.84;4971829;28;20070;-92
2023/12/15 00:05:22;;;;;;;0.20;0.20;;;;;;;9.59;73.01;101191.56;4972181;28;20526;-92
2023/12/15 00:07:47;;;;;;;0.15;0.15;;;;;;;9.41;74.06;101187.91;4971981;28;20106;-91
2023/12/15 00:10:13;;;;;;;0.20;0.20;;;;;;;9.41;74.12;101185.31;4972089;28;20477;-90
2023/12/15 00:12:38;;;;;;;0.20;0.20;;;;;;;9.35;74.42;101196.72;4972152;28;20058;-92
2023/12/15 00:15:04;;;;;;;0.20;0.20;;;;;;;9.32;73.93;101204.53;4972022;28;20026;-93
2023/12/15 00:17:30;;;;;;;0.20;0.20;;;;;;;9.26;74.23;101201.34;4971470;28;20412;-91
2023/12/15 00:19:55;;;;;;;0.20;0.20;;;;;;;9.29;73.93;101202.09;4971730;28;20121;-93
2023/12/15 00:22:21;;;;;;;0.20;0.20;;;;;;;9.30;73.68;101211.50;4971670;28;20023;-92
2023/12/15 00:24:46;;;;;;;0.20;0.20;;;;;;;9.43;73.99;101211.91;4971915;28;20039;-93
2023/12/15 00:27:12;;;;;;;0.20;0.20;;;;;;;9.44;73.05;101221.38;4972032;28;20034;-94
2023/12/15 00:29:37;;;;;;;0.20;0.20;;;;;;;9.47;72.76;101218.69;4971790;28;20035;-91
2023/12/15 00:32:03;;;;;;;0.20;0.20;;;;;;;9.39;72.88;101211.19;4971360;28;20097;-92
2023/12/15 00:34:29;;;;;;;0.20;0.20;;;;;;;9.43;72.81;101186.94;4971630;28;20053;-91
2023/12/15 00:36:55;;;;;;;0.20;0.20;;;;;;;9.56;72.22;101196.84;4971323;28;20034;-91
2023/12/15 00:39:20;;;;;;;0.20;0.20;;;;;;;9.51;72.82;101196.16;4971779;28;20031;-91
2023/12/15 00:41:46;;;;;;;0.20;0.20;;;;;;;9.57;73.17;101214.03;4971860;28;20035;-93
2023/12/15 00:44:11;;;;;;;0.20;0.20;;;;;;;9.59;72.26;101217.41;4971803;28;20527;-94
2023/12/15 00:46:37;;;;;;;0.20;0.20;;;;;;;9.56;72.64;101207.19;4971239;28;20623;-92
2023/12/15 00:49:02;;;;;;;0.20;0.20;;;;;;;9.55;71.88;101206.34;4972742;28;20536;-91
2023/12/15 00:51:28;;;;;;;0.10;0.10;;;;;;;9.59;72.10;101207.06;4971736;28;20068;-94
2023/12/15 00:53:54;;;;;;;0.20;0.20;;;;;;;9.53;72.16;101217.59;4971658;28;20026;-89
2023/12/15 00:56:19;;;;;;;0.20;0.20;;;;;;;9.55;71.74;101221.00;4955468;28;20030;-92
2023/12/15 00:58:45;;;;;;;0.20;0.20;;;;;;;9.59;72.72;101227.75;4971744;28;20414;-92
2023/12/15 01:01:10;;;;;;;0.20;0.20;;;;;;;9.36;72.37;101211.31;4971260;28;20058;-93
2023/12/15 01:03:37;;;;;;;0.20;0.20;;;;;;;9.53;73.00;101253.78;4971620;28;20027;-91
2023/12/15 01:06:02;;;;;;;0.20;0.20;;;;;;;9.43;72.59;101251.50;4971376;28;20047;-91
2023/12/15 01:08:28;;;;;;;0.20;0.20;;;;;;;9.40;72.70;101246.44;4971309;28;20074;-91
2023/12/15 01:10:53;;;;;;;0.20;0.20;;;;;;;9.21;72.92;101216.97;4971386;28;20019;-91
2023/12/15 01:13:19;;;;;;;0.20;0.20;;;;;;;9.42;72.35;101254.97;4972571;28;20027;-94
2023/12/15 01:15:44;;;;;;;0.20;0.20;;;;;;;9.38;73.17;101253.41;4971135;28;20031;-92
2023/12/15 01:18:11;;;;;;;0.20;0.20;;;;;;;9.35;73.27;101250.94;4955257;28;20619;-91
2023/12/15 01:20:36;;;;;;;0.20;0.20;;;;;;;9.35;72.63;101266.44;4972384;28;20058;-92
2023/12/15 01:23:02;;;;;;;0.20;0.20;;;;;;;9.35;73.19;101270.75;4972369;28;20077;-93
2023/12/15 01:25:27;;;;;;;0.20;0.20;;;;;;;9.35;72.63;101271.59;4971235;28;20125;-92
2023/12/15 01:27:53;;;;;;;0.10;0.10;;;;;;;9.32;72.88;101258.78;4971398;28;20038;-92
2023/12/15 01:30:18;;;;;;;0.13;0.13;;;;;;;9.23;73.24;101271.97;4970950;28;20038;-93
2023/12/15 01:32:44;;;;;;;0.20;0.20;;;;;;;9.26;73.18;101263.31;4971421;28;20050;-94
2023/12/15 01:35:09;;;;;;;0.20;0.20;;;;;;;9.26;73.05;101269.31;4971358;28;20030;-93
2023/12/15 01:37:35;;;;;;;0.20;0.20;;;;;;;9.40;72.87;101277.44;4971160;28;20485;-91
2023/12/15 01:40:01;;;;;;;0.20;0.20;;;;;;;9.46;72.35;101282.41;4971008;28;20493;-92
2023/12/15 01:42:26;;;;;;;0.20;0.20;;;;;;;9.38;72.03;101284.41;4971039;28;20035;-93
2023/12/15 01:44:52;;;;;;;0.20;0.20;;;;;;;9.36;72.11;101285.34;4970760;28;20035;-91
2023/12/15 01:47:18;;;;;;;0.20;0.20;;;;;;;9.09;73.21;101274.19;4971068;28;20109;-92
2023/12/15 01:49:47;;;;;;;0.20;0.20;;;;;;;9.18;72.42;101284.22;4973803;28;20023;-92
2023/12/15 01:52:13;;;;;;;0.20;0.20;;;;;;;9.20;72.68;101292.75;4974586;28;20385;-92
2023/12/15 01:54:38;;;;;;;0.20;0.20;;;;;;;9.20;71.55;101288.44;4974406;28;20126;-93
2023/12/15 01:57:04;;;;;;;0.20;0.20;;;;;;;9.17;72.05;101293.69;4974567;28;20536;-93
2023/12/15 01:59:47;;;;;;;0.20;0.20;;;;;;;9.15;71.98;101286.91;4974119;28;20027;-92
2023/12/15 02:02:12;;;;;;;0.20;0.20;;;;;;;9.07;72.10;101291.47;4974302;28;20093;-90
2023/12/15 02:04:38;;;;;;;0.20;0.20;;;;;;;9.06;71.10;101302.69;4974120;28;20038;-91
2023/12/15 02:07:04;;;;;;;0.20;0.20;;;;;;;9.08;71.38;101298.31;4942400;28;20072;-92
2023/12/15 02:09:29;;;;;;;0.20;0.20;;;;;;;9.17;71.69;101304.03;4974427;28;20038;-91
2023/12/15 02:11:55;;;;;;;0.20;0.20;;;;;;;9.23;70.78;101305.53;4974327;28;20042;-92
2023/12/15 02:14:20;;;;;;;0.20;0.20;;;;;;;9.16;70.28;101304.06;4973752;28;20038;-91
2023/12/15 02:16:46;;;;;;;0.20;0.20;;;;;;;9.18;70.36;101308.28;4974036;28;20031;-91
2023/12/15 02:19:11;;;;;;;0.20;0.20;;;;;;;9.23;69.88;101287.47;4974100;28;20031;-91
2023/12/15 02:21:37;;;;;;;0.20;0.20;;;;;;;9.27;69.94;101296.81;4974015;28;20030;-92
2023/12/15 02:24:02;;;;;;;0.20;0.20;;;;;;;9.18;70.11;101292.81;4973986;28;20035;-91
2023/12/15 02:26:28;;;;;;;0.20;0.20;;;;;;;9.13;69.65;101297.25;4973774;28;20129;-92
2023/12/15 02:28:53;;;;;;;0.20;0.20;;;;;;;9.16;69.83;101304.91;4973845;28;20030;-91
2023/12/15 02:31:20;;;;;;;0.20;0.20;;;;;;;9.25;70.18;101310.69;4973676;28;20077;-91
2023/12/15 02:33:46;;;;;;;0.20;0.20;;;;;;;9.15;70.01;101313.56;4973747;28;20037;-92
2023/12/15 02:36:21;;;;;;;0.20;0.20;;;;;;;9.14;70.24;101318.75;4973827;28;20117;-92
2023/12/15 02:38:46;;;;;;;0.20;0.20;;;;;;;8.97;70.39;101310.72;4973914;28;20126;-92
2023/12/15 02:41:12;;;;;;;0.20;0.20;;;;;;;8.96;71.04;101320.19;4973802;28;20031;-93
2023/12/15 02:43:38;;;;;;;0.20;0.20;;;;;;;8.97;70.63;101328.78;4973385;28;20066;-92
2023/12/15 02:46:04;;;;;;;0.20;0.20;;;;;;;8.91;71.15;101333.22;4973681;28;20031;-93
2023/12/15 02:48:30;;;;;;;0.20;0.20;;;;;;;9.03;71.21;101351.81;4973137;28;20033;-93
2023/12/15 02:50:55;;;;;;;0.20;0.20;;;;;;;8.93;70.70;101358.13;4957358;28;20027;-91
2023/12/15 02:53:21;;;;;;;0.20;0.20;;;;;;;8.81;70.87;101370.53;4973349;28;20042;-90
2023/12/15 02:55:46;;;;;;;0.20;0.20;;;;;;;8.83;71.13;101366.16;4973189;28;20035;-92
2023/12/15 02:58:12;;;;;;;0.20;0.20;;;;;;;8.86;70.98;101363.50;4973139;28;20027;-90
2023/12/15 03:00:37;;;;;;;0.20;0.20;;;;;;;8.88;71.14;101364.28;4972823;28;20031;-91
2023/12/15 03:03:03;;;;;;;0.20;0.20;;;;;;;8.88;70.78;101364.28;4973100;28;20027;-93
2023/12/15 03:05:28;;;;;;;0.20;0.20;;;;;;;8.89;70.71;101365.97;4973130;28;20027;-93
2023/12/15 03:07:54;;;;;;;0.20;0.20;;;;;;;8.80;71.29;101366.25;4973039;28;20094;-92
2023/12/15 03:10:19;;;;;;;0.20;0.20;;;;;;;8.67;71.56;101364.94;4972900;28;20030;-92
2023/12/15 03:12:45;;;;;;;0.20;0.20;;;;;;;8.52;71.72;101350.72;4972759;28;20046;-91
2023/12/15 03:15:11;;;;;;;0.20;0.20;;;;;;;8.69;72.31;101390.69;4973136;28;20035;-93
2023/12/15 03:17:36;;;;;;;0.20;0.20;;;;;;;8.72;70.93;101388.84;4972737;28;20485;-93
2023/12/15 03:20:03;;;;;;;0.20;0.20;;;;;;;8.79;70.82;101394.69;4973841;28;20042;-93
2023/12/15 03:22:29;;;;;;;0.20;0.20;;;;;;;8.73;71.03;101395.69;4972818;28;20034;-91
2023/12/15 03:24:55;;;;;;;0.20;0.20;;;;;;;8.65;71.41;101404.53;4972770;28;20034;-92
2023/12/15 03:27:20;;;;;;;0.20;0.20;;;;;;;8.63;71.48;101414.91;4972575;28;20027;-93
2023/12/15 03:29:46;;;;;;;0.20;0.20;;;;;;;8.49;71.50;101396.41;4972769;28;20071;-91
2023/12/15 03:32:11;;;;;;;0.20;0.20;;;;;;;8.63;71.40;101410.59;4972491;28;20109;-91
2023/12/15 03:34:37;;;;;;;0.20;0.20;;;;;;;8.51;71.42;101415.25;4972612;28;20026;-92
2023/12/15 03:37:02;;;;;;;0.20;0.20;;;;;;;8.43;72.13;101420.63;4972612;28;20034;-92
2023/12/15 03:39:28;;;;;;;0.20;0.20;;;;;;;8.37;72.80;101422.53;4956033;28;20089;-92
2023/12/15 03:41:53;;;;;;;0.20;0.20;;;;;;;8.40;72.73;101433.59;4972105;28;20034;-91
2023/12/15 03:44:19;;;;;;;0.20;0.20;;;;;;;8.37;72.15;101433.69;4956327;28;20067;-91
2023/12/15 03:46:44;;;;;;;0.10;0.10;;;;;;;8.28;72.03;101406.38;4972278;28;20038;-90
2023/12/15 03:49:10;;;;;;;0.20;0.20;;;;;;;8.48;72.43;101428.25;4972344;28;20031;-93
2023/12/15 03:51:36;;;;;;;0.20;0.20;;;;;;;8.42;72.08;101428.41;4972440;28;20031;-89
2023/12/15 03:54:02;;;;;;;0.10;0.10;;;;;;;8.26;72.51;101418.47;4972368;28;20034;-92
2023/12/15 03:56:27;;;;;;;0.20;0.20;;;;;;;8.40;71.95;101428.44;4971956;28;20076;-92
2023/12/15 03:58:53;;;;;;;0.20;0.20;;;;;;;8.39;71.89;101433.66;4972497;28;20412;-93
2023/12/15 04:01:19;;;;;;;0.20;0.20;;;;;;;8.40;71.97;101441.34;4972021;28;20035;-90
2023/12/15 04:03:44;;;;;;;0.20;0.20;;;;;;;8.36;72.05;101446.59;4971662;28;20018;-91
2023/12/15 04:06:10;;;;;;;0.20;0.20;;;;;;;8.40;71.56;101445.66;4971656;28;20042;-89
2023/12/15 04:08:35;;;;;;;0.20;0.20;;;;;;;8.27;71.56;101432.22;4971013;28;20033;-89
2023/12/15 04:11:01;;;;;;;0.20;0.20;;;;;;;8.42;71.37;101454.19;4971730;28;20496;-90
2023/12/15 04:13:27;;;;;;;0.20;0.20;;;;;;;8.31;71.06;101423.50;4971565;28;20420;-89
2023/12/15 04:15:52;;;;;;;0.20;0.20;;;;;;;8.52;71.49;101453.03;4972898;28;20485;-90
2023/12/15 04:18:18;;;;;;;0.20;0.20;;;;;;;8.43;71.07;101450.72;4955108;28;20041;-89
2023/12/15 04:20:43;;;;;;;0.20;0.20;;;;;;;8.44;71.09;101460.97;4955268;28;20034;-90
2023/12/15 04:23:09;;;;;;;0.20;0.20;;;;;;;8.47;71.11;101460.06;4971357;28;20018;-90
2023/12/15 04:25:34;;;;;;;0.20;0.20;;;;;;;8.36;71.16;101457.78;4970649;28;20031;-90
2023/12/15 04:28:00;;;;;;;0.20;0.20;;;;;;;8.51;71.09;101461.69;4971461;28;20035;-90
2023/12/15 04:30:25;;;;;;;0.20;0.20;;;;;;;8.49;70.69;101472.03;4971414;28;20050;-91
2023/12/15 04:33:06;;;;;;;0.20;0.20;;;;;;;8.25;70.27;101437.38;4968266;28;20046;-90
2023/12/15 04:35:32;;;;;;;0.20;0.20;;;;;;;8.49;70.74;101477.19;4957110;28;20026;-89
2023/12/15 04:37:57;;;;;;;0.20;0.20;;;;;;;8.41;70.66;101475.69;4957282;28;20432;-89
2023/12/15 04:40:23;;;;;;;0.20;0.20;;;;;;;8.47;70.27;101488.44;4957714;28;20041;-90
2023/12/15 04:42:48;;;;;;;0.20;0.20;;;;;;;8.41;70.46;101480.84;4957978;28;20026;-85
2023/12/15 04:45:14;;;;;;;0.20;0.20;;;;;;;8.46;70.40;101495.34;4958171;28;20026;-91
2023/12/15 04:47:39;;;;;;;0.20;0.20;;;;;;;8.58;69.86;101499.31;4958515;28;20031;-92
2023/12/15 04:50:05;;;;;;;0.20;0.20;;;;;;;8.48;70.59;101485.81;4974300;28;20045;-92
2023/12/15 04:52:31;;;;;;;0.20;0.20;;;;;;;8.44;70.40;101506.56;4958029;28;20042;-91
2023/12/15 04:54:56;;;;;;;0.20;0.20;;;;;;;8.48;70.04;101516.75;4942556;28;20492;-91
2023/12/15 04:57:21;;;;;;;0.20;0.20;;;;;;;8.49;70.01;101521.03;4974432;28;20030;-92
2023/12/15 04:59:47;;;;;;;0.20;0.20;;;;;;;8.47;70.10;101516.81;4974479;28;20031;-92
2023/12/15 05:02:12;;;;;;;0.20;0.20;;;;;;;8.59;70.34;101532.81;4974425;28;20492;-89
2023/12/15 05:04:38;;;;;;;0.20;0.20;;;;;;;8.65;70.55;101533.50;4958403;28;20031;-92
2023/12/15 05:07:04;;;;;;;0.20;0.20;;;;;;;8.56;70.64;101534.63;4958411;28;20041;-92
2023/12/15 05:09:29;;;;;;;0.20;0.20;;;;;;;8.67;70.04;101550.66;4969680;28;20039;-87
2023/12/15 05:11:55;;;;;;;0.20;0.20;;;;;;;8.50;70.95;101521.88;4971700;28;20038;-87
2023/12/15 05:14:20;;;;;;;0.20;0.20;;;;;;;8.69;70.86;101548.03;4972960;28;20469;-87
2023/12/15 05:16:46;;;;;;;0.20;0.20;;;;;;;8.45;70.29;101515.97;4989908;28;20033;-87
2023/12/15 05:19:11;;;;;;;0.20;0.20;;;;;;;8.69;70.49;101542.88;4988911;28;20146;-86
2023/12/15 05:21:37;;;;;;;0.20;0.20;;;;;;;8.63;70.56;101554.19;4969244;28;20034;-86
2023/12/15 05:24:02;;;;;;;0.20;0.20;;;;;;;8.60;70.07;101554.28;4957935;28;20037;-89
2023/12/15 05:26:28;;;;;;;0.20;0.20;;;;;;;8.55;69.62;101574.16;4974815;28;20065;-91
2023/12/15 05:28:54;;;;;;;0.20;0.20;;;;;;;8.48;69.67;101580.38;4979050;28;20096;-85
2023/12/15 05:31:19;;;;;;;0.20;0.20;;;;;;;8.52;69.91;101582.00;4992717;28;20058;-84
2023/12/15 05:33:45;;;;;;;0.20;0.20;;;;;;;8.58;69.88;101587.00;4975265;28;20638;-87
2023/12/15 05:36:20;;;;;;;0.20;0.20;;;;;;;8.59;70.04;101588.69;4978763;28;20038;-89
2023/12/15 05:38:47;;;;;;;0.20;0.20;;;;;;;8.57;69.65;101591.31;4961380;28;20034;-87
2023/12/15 05:41:12;;;;;;;0.20;0.20;;;;;;;8.76;69.95;101611.50;4973564;28;20493;-88
2023/12/15 05:43:38;;;;;;;0.20;0.20;;;;;;;8.66;68.93;101597.13;4974329;28;20034;-88
2023/12/15 05:46:04;;;;;;;0.20;0.20;;;;;;;8.70;68.79;101612.47;4975636;28;20030;-87
2023/12/15 05:48:29;;;;;;;0.15;0.15;;;;;;;8.54;68.76;101600.84;4975032;28;20022;-87
2023/12/15 05:50:54;;;;;;;0.20;0.20;;;;;;;8.59;69.54;101615.34;4963067;28;20042;-90
2023/12/15 05:53:20;;;;;;;0.20;0.20;;;;;;;8.55;69.20;101612.84;4993667;28;20097;-87
2023/12/15 05:55:47;;;;;;;0.20;0.20;;;;;;;8.60;69.87;101603.28;4951277;28;20030;-90
2023/12/15 05:58:13;;;;;;;0.20;0.20;;;;;;;8.71;68.67;101627.06;4941745;28;20030;-84
2023/12/15 06:00:38;;;;;;;0.13;0.13;;;;;;;8.68;68.63;101622.00;4992058;28;20037;-87
2023/12/15 06:03:04;;;;;;;0.20;0.20;;;;;;;8.53;69.26;101609.47;4987830;28;20057;-84
2023/12/15 06:05:34;;;;;;;0.10;0.10;;;;;;;8.73;68.61;101639.94;4987983;28;20492;-91
2023/12/15 06:08:00;;;;;;;0.10;0.10;;;;;;;8.67;68.59;101638.38;4971251;28;20117;-85
2023/12/15 06:10:26;;;;;;;0.20;0.20;;;;;;;8.64;68.32;101633.25;4968931;28;20034;-86
2023/12/15 06:12:51;;;;;;;0.20;0.20;;;;;;;8.65;68.38;101650.44;4974809;28;20693;-89
2023/12/15 06:15:17;;;;;;;0.20;0.20;;;;;;;8.70;68.45;101676.97;4994147;28;20420;-93
2023/12/15 06:17:42;;;;;;;0.20;0.20;;;;;;;8.58;68.48;101661.81;4974949;28;20038;-93
2023/12/15 06:20:08;;;;;;;0.20;0.20;;;;;;;8.45;68.75;101668.13;4961999;28;20045;-89
2023/12/15 06:22:34;;;;;;;0.20;0.20;;;;;;;8.58;69.14;101687.59;4991656;28;20045;-89
2023/12/15 06:25:00;;;;;;;0.20;0.20;;;;;;;8.52;68.80;101680.00;4973151;28;20034;-89
2023/12/15 06:27:25;;;;;;;0.20;0.20;;;;;;;8.65;68.72;101702.03;4973055;28;20031;-84
2023/12/15 06:29:50;;;;;;;0.20;0.20;;;;;;;8.58;68.74;101700.50;4987023;28;20517;-83
2023/12/15 06:32:16;;;;;;;0.20;0.20;;;;;;;8.41;68.49;101671.66;4991603;28;20428;-85
2023/12/15 06:34:42;;;;;;;0.20;0.20;;;;;;;8.49;69.07;101691.25;4990290;28;20038;-85
2023/12/15 06:37:08;;;;;;;0.20;0.20;;;;;;;8.37;68.63;101693.25;4957628;28;20026;-84
2023/12/15 06:39:33;;;;;;;0.20;0.20;;;;;;;8.36;68.95;101666.63;4991218;28;20132;-83
2023/12/15 06:41:59;;;;;;;0.20;0.20;;;;;;;8.54;68.44;101704.84;4991008;28;20033;-85
2023/12/15 06:44:25;;;;;;;0.20;0.20;;;;;;;8.67;70.90;101695.13;4973056;28;20026;-86
2023/12/15 06:46:51;;;;;;;0.20;0.20;;;;;;;8.85;69.98;101710.16;4975432;28;20049;-87
2023/12/15 06:49:18;;;;;;;0.20;0.20;;;;;;;8.77;67.88;101717.22;4971736;28;20523;-84
2023/12/15 06:51:44;;;;;;;0.20;0.20;;;;;;;8.57;67.84;101691.06;4986960;28;20945;-81
2023/12/15 06:54:09;;;;;;;0.20;0.20;;;;;;;8.68;67.26;101708.88;4973907;28;20034;-87
2023/12/15 06:56:38;;;;;;;0.20;0.20;;;;;;;8.55;67.80;101703.13;4988858;28;20034;-87
2023/12/15 06:59:03;;;;;;;0.20;0.20;;;;;;;8.71;67.93;101744.91;4987264;28;20030;-83
2023/12/15 07:01:29;;;;;;;0.20;0.20;;;;;;;8.66;68.12;101739.88;4992859;28;20046;-83
2023/12/15 07:03:54;;;;;;;0.20;0.20;;;;;;;8.67;67.99;101713.19;4970716;28;20038;-87
2023/12/15 07:06:20;;;;;;;0.20;0.20;;;;;;;8.63;68.04;101738.19;4972490;28;20037;-85
2023/12/15 07:08:50;;;;;;;0.10;0.10;;;;;;;8.32;67.66;101707.06;4991158;28;20381;-82
2023/12/15 07:11:15;;;;;;;0.20;0.20;;;;;;;8.41;67.88;101749.03;4990131;28;20428;-82
2023/12/15 07:13:41;;;;;;;0.20;0.20;;;;;;;8.51;68.31;101750.53;4990814;28;20038;-83
2023/12/15 07:16:07;;;;;;;0.20;0.20;;;;;;;8.41;67.79;101738.72;4990519;28;20038;-83
2023/12/15 07:18:33;;;;;;;0.20;0.20;;;;;;;8.50;67.55;101753.97;4973646;28;20531;-83
2023/12/15 07:20:59;;;;;;;0.20;0.20;;;;;;;8.54;67.71;101760.75;4985797;28;20069;-90
2023/12/15 07:23:24;;;;;;;0.20;0.20;;;;;;;8.66;67.14;101765.66;4975481;28;20065;-86
2023/12/15 07:25:50;;;;;;;0.10;0.10;;;;;;;8.66;66.39;101781.16;4961120;28;20029;-82
2023/12/15 07:28:16;;;;;;;0.20;0.20;;;;;;;8.67;66.79;101782.00;4966574;28;20046;-85
2023/12/15 07:30:41;;;;;;;0.20;0.20;;;;;;;8.63;66.54;101784.63;4956475;28;20026;-81
2023/12/15 07:33:08;;;;;;;0.20;0.20;;;;;;;8.77;67.14;101779.16;4991255;28;20492;-86
2023/12/15 07:35:33;;;;;;;0.20;0.20;;;;;;;8.79;67.67;101790.28;4988276;28;20038;-83
2023/12/15 07:37:59;;;;;;;0.20;0.20;;;;;;;8.77;66.66;101784.31;4973458;28;20042;-82
2023/12/15 07:40:24;;;;;;;0.20;0.20;;;;;;;8.78;67.56;101780.84;4976940;28;20034;-84
2023/12/15 07:42:50;;;;;;;0.20;0.20;;;;;;;8.86;66.50;101809.06;4967560;28;20488;-84
2023/12/15 07:45:15;;;;;;;0.20;0.20;;;;;;;8.91;67.44;101808.06;4968730;28;20034;-84
2023/12/15 07:47:41;;;;;;;0.20;0.20;;;;;;;8.73;65.75;101787.00;4990071;28;20030;-88
2023/12/15 07:50:07;;;;;;;0.10;0.10;;;;;;;8.90;66.57;101818.44;4974094;28;20500;-85
2023/12/15 07:52:32;;;;;;;0.20;0.20;;;;;;;8.96;66.49;101833.78;4949126;28;20034;-84
2023/12/15 07:54:57;;;;;;;0.20;0.20;;;;;;;9.02;65.81;101856.00;4970218;28;20038;-89
2023/12/15 07:57:23;;;;;;;0.20;0.20;;;;;;;8.90;66.77;101842.50;4956939;28;20045;-84
2023/12/15 07:59:48;;;;;;;0.20;0.20;;;;;;;8.99;66.05;101864.69;4981980;28;20487;-88
2023/12/15 08:02:16;;;;;;;0.20;0.20;;;;;;;9.05;65.97;101876.59;4977991;28;20038;-86
2023/12/15 08:04:42;;;;;;;0.20;0.20;;;;;;;9.02;65.89;101867.19;4990523;28;20085;-86
2023/12/15 08:07:08;;;;;;;0.20;0.20;;;;;;;9.09;65.50;101875.63;4972937;28;20085;-82
2023/12/15 08:09:33;;;;;;;0.20;0.20;;;;;;;8.97;66.67;101863.03;4991104;28;20508;-84
2023/12/15 08:11:59;;;;;;;0.20;0.20;;;;;;;9.13;66.62;101885.00;4990267;28;20027;-83
2023/12/15 08:14:26;;;;;;;0.20;0.20;;;;;;;9.27;66.01;101902.78;4990217;28;20038;-86
2023/12/15 08:16:53;;;;;;;0.20;0.20;;;;;;;9.29;65.39;101906.16;4990288;28;20023;-86
2023/12/15 08:19:18;;;;;;;0.20;0.20;;;;;;;9.24;64.83;101897.66;4973765;28;20030;-87
2023/12/15 08:21:44;;;;;;;0.20;0.20;;;;;;;9.18;65.92;101903.84;4990433;28;20063;-84
2023/12/15 08:24:10;;;;;;;0.20;0.20;;;;;;;9.18;65.06;101914.16;4989198;28;20049;-88
2023/12/15 08:26:35;;;;;;;0.20;0.20;;;;;;;9.11;64.85;101894.53;4973793;28;20034;-88
2023/12/15 08:29:00;;;;;;;0.20;0.20;;;;;;;9.25;65.85;101915.72;4989615;28;20041;-90
2023/12/15 08:31:26;;;;;;;0.20;0.20;;;;;;;9.18;67.12;101924.50;4973350;28;20050;-83
2023/12/15 08:33:52;;;;;;;0.20;0.20;;;;;;;9.22;67.02;101935.59;4957089;28;20030;-88
2023/12/15 08:36:17;;;;;;;0.20;0.20;;;;;;;9.24;67.80;101939.81;4972296;28;20424;-87
2023/12/15 08:38:43;;;;;;;0.20;0.20;;;;;;;9.20;67.96;101941.63;4957177;28;20073;-86
2023/12/15 08:41:08;;;;;;;0.20;0.20;;;;;;;9.08;68.58;101923.00;4972907;28;20022;-85
2023/12/15 08:43:34;;;;;;;0.20;0.20;;;;;;;9.16;67.70;101937.44;4973383;28;20110;-85
2023/12/15 08:46:00;;;;;;;0.20;0.20;;;;;;;9.16;68.66;101946.91;4989416;28;20057;-84
2023/12/15 08:48:25;;;;;;;0.20;0.20;;;;;;;9.16;68.36;101955.50;4989323;28;20030;-83
2023/12/15 08:50:50;;;;;;;0.20;0.20;;;;;;;9.09;68.61;101955.66;4969298;28;20039;-89
2023/12/15 08:53:18;;;;;;;0.20;0.20;;;;;;;9.11;67.78;101953.91;4982224;28;20037;-88
2023/12/15 08:55:44;;;;;;;0.20;0.20;;;;;;;9.02;68.77;101954.09;4969982;28;20045;-86
2023/12/15 08:58:09;;;;;;;0.15;0.15;;;;;;;9.00;68.32;101933.47;5008120;28;20030;-89
2023/12/15 09:00:35;;;;;;;0.20;0.20;;;;;;;9.15;67.72;101940.06;4993267;28;20431;-85
2023/12/15 09:03:01;;;;;;;0.20;0.20;;;;;;;9.12;67.79;101955.59;4994641;28;20105;-91
2023/12/15 09:05:26;;;;;;;0.20;0.20;;;;;;;9.03;67.77;101953.22;4991980;28;20100;-87
2023/12/15 09:07:52;;;;;;;0.20;0.20;;;;;;;9.05;68.22;101954.91;4971295;28;20031;-91
2023/12/15 09:10:18;;;;;;;0.20;0.20;;;;;;;8.99;68.26;101949.84;4966062;28;20586;-89
2023/12/15 09:12:44;;;;;;;0.20;0.20;;;;;;;8.95;68.63;101955.09;4981295;28;20403;-85
2023/12/15 09:15:09;;;;;;;0.20;0.20;;;;;;;8.89;66.59;101933.72;4993903;28;20035;-87
2023/12/15 09:17:35;;;;;;;0.20;0.20;;;;;;;9.00;67.44;101955.88;4993280;28;20105;-85
2023/12/15 09:20:00;;;;;;;0.20;0.20;;;;;;;9.02;67.59;101954.09;4980251;28;20038;-89
2023/12/15 09:22:26;;;;;;;0.20;0.20;;;;;;;8.94;67.20;101938.75;4960560;28;20039;-89
2023/12/15 09:24:51;;;;;;;0.20;0.20;;;;;;;9.00;67.03;101953.28;4984087;28;20030;-86
2023/12/15 09:27:17;;;;;;;0.20;0.20;;;;;;;9.00;65.85;101955.88;5002680;28;20386;-84
2023/12/15 09:29:43;;;;;;;0.20;0.20;;;;;;;8.86;67.39;101931.19;4956821;28;20073;-84
2023/12/15 09:32:08;;;;;;;0.20;0.20;;;;;;;8.87;66.78;101935.47;4967093;28;20059;-83
2023/12/15 09:34:34;;;;;;;0.20;0.20;;;;;;;8.80;67.08;101922.72;4972923;28;20498;-91
2023/12/15 09:36:59;;;;;;;0.20;0.20;;;;;;;8.90;67.61;101957.78;4981854;28;20041;-84
2023/12/15 09:39:25;;;;;;;0.20;0.20;;;;;;;9.00;68.21;101958.44;4993167;28;20063;-88
2023/12/15 09:41:50;;;;;;;0.20;0.20;;;;;;;9.06;67.66;101955.75;4960175;28;20440;-84
2023/12/15 09:44:16;;;;;;;0.20;0.20;;;;;;;9.01;68.20;101944.66;4941811;28;20034;-86
2023/12/15 09:46:42;;;;;;;0.20;0.20;;;;;;;8.99;68.00;101957.59;4972728;28;20037;-88
2023/12/15 09:49:10;;;;;;;0.20;0.20;;;;;;;8.94;67.34;101959.41;4973091;28;20034;-86
2023/12/15 09:51:36;;;;;;;0.20;0.20;;;;;;;8.86;68.21;101951.00;4958891;28;20479;-85
2023/12/15 09:54:01;;;;;;;0.20;0.20;;;;;;;8.88;68.36;101952.66;4975703;28;20030;-83
2023/12/15 09:56:26;;;;;;;0.20;0.20;;;;;;;9.12;70.29;101976.25;4972403;28;20037;-84
2023/12/15 09:58:53;;;;;;;0.20;0.20;;;;;;;9.02;69.02;101990.22;4971245;28;20027;-84
2023/12/15 10:01:19;;;;;;;0.20;0.20;;;;;;;8.93;68.82;101980.09;4989744;28;20512;-86
2023/12/15 10:03:44;;;;;;;0.20;0.20;;;;;;;8.96;69.15;101998.13;4955408;28;20031;-82
2023/12/15 10:06:10;;;;;;;0.20;0.20;;;;;;;8.84;69.28;102004.34;4989311;28;20057;-83
2023/12/15 10:08:43;;;;;;;0.20;0.20;;;;;;;8.80;69.93;102002.72;4972944;28;20039;-87
2023/12/15 10:11:08;;;;;;;0.20;0.20;;;;;;;8.83;69.54;102006.09;4957939;28;20046;-85
2023/12/15 10:13:34;;;;;;;0.20;0.20;;;;;;;8.84;70.05;102006.94;4989339;28;20034;-83
2023/12/15 10:15:59;;;;;;;0.20;0.20;;;;;;;8.49;70.02;101979.25;4989519;28;20041;-82
2023/12/15 10:18:25;;;;;;;0.20;0.20;;;;;;;8.71;70.98;102002.91;4991101;28;20886;-86
2023/12/15 10:20:50;;;;;;;0.20;0.20;;;;;;;8.68;70.72;102005.53;4972512;28;20038;-84
2023/12/15 10:23:17;;;;;;;0.20;0.20;;;;;;;8.66;72.04;102008.16;4971681;28;20067;-88
2023/12/15 10:25:48;;;;;;;0.20;0.20;;;;;;;8.68;73.12;102006.41;4956453;28;20038;-84
2023/12/15 10:28:15;;;;;;;0.20;0.20;;;;;;;8.70;73.68;102006.38;4975635;28;20069;-93
2023/12/15 10:30:40;;;;;;;0.20;0.20;;;;;;;8.80;74.56;102010.47;4958998;28;20548;-84
2023/12/15 10:33:06;;;;;;;0.20;0.20;;;;;;;8.70;74.88;101998.63;4971940;28;20039;-86
2023/12/15 10:35:31;;;;;;;0.20;0.20;;;;;;;8.77;75.96;102021.72;4969570;28;20035;-84
2023/12/15 10:37:57;;;;;;;0.20;0.20;;;;;;;8.67;76.94;102019.34;4956732;28;20037;-83
2023/12/15 10:40:22;;;;;;;0.20;0.20;;;;;;;8.60;77.34;102021.16;4978264;28;20034;-84
2023/12/15 10:42:50;;;;;;;0.20;0.20;;;;;;;8.65;77.81;102021.91;5007698;28;20026;-81
2023/12/15 10:45:15;;;;;;;0.20;0.20;;;;;;;8.66;78.46;102022.78;4971489;28;20523;-84
2023/12/15 10:47:41;;;;;;;0.20;0.20;;;;;;;8.48;78.88;102000.75;4958232;28;20055;-83
2023/12/15 10:50:08;;;;;;;0.20;0.20;;;;;;;8.45;79.01;101985.31;4971825;28;20493;-85
2023/12/15 10:52:35;;;;;;;0.20;0.20;;;;;;;8.72;78.53;102020.94;4954275;28;20051;-86
2023/12/15 10:55:04;;;;;;;0.20;0.20;;;;;;;8.74;78.48;102032.06;4967698;28;20038;-83
2023/12/15 10:57:30;;;;;;;0.20;0.20;;;;;;;8.63;78.54;102029.69;4959489;28;20026;-85
2023/12/15 10:59:56;;;;;;;0.20;0.20;;;;;;;8.56;78.55;102038.44;4946622;28;20038;-86
2023/12/15 11:02:23;;;;;;;0.20;0.20;;;;;;;8.52;78.29;102041.09;4974492;28;20031;-86
2023/12/15 11:04:51;;;;;;;0.20;0.20;;;;;;;8.58;77.93;102040.97;4956192;28;20590;-85
2023/12/15 11:07:20;;;;;;;0.20;0.20;;;;;;;8.45;77.42;102030.00;4955948;28;20038;-86
2023/12/15 11:09:46;;;;;;;0.20;0.20;;;;;;;8.33;77.69;102028.47;4955691;28;20027;-86
2023/12/15 11:12:36;;;;;;;0.20;0.20;;;;;;;8.31;78.21;102043.13;4973977;28;20039;-85
2023/12/15 11:15:13;;;;;;;0.20;0.20;;;;;;;8.28;78.55;102043.19;4988719;28;20101;-88
2023/12/15 11:17:39;;;;;;;0.20;0.20;;;;;;;8.37;78.53;102062.00;4973526;28;20023;-85
2023/12/15 11:20:11;;;;;;;0.10;0.10;;;;;;;8.46;77.68;102067.84;4953774;28;20479;-83
2023/12/15 11:23:01;;;;;;;;;;;;;;;8.53;77.51;102073.72;4952481;28;20054;-84
2023/12/15 11:25:30;;;;;;;0.20;0.20;;;;;;;8.16;77.96;102048.56;4967470;28;19917;-85
2023/12/15 11:28:09;;;;;;;0.20;0.20;;;;;;;8.39;77.74;102086.88;4987686;28;20034;-85